This demonstration page uses our WeatherBlox Daily Observations layout. Learn more.

Left ArrowRight Arrow

Hourly Observations for October 13, 2018

Temp ( °F °C ) Dew Point ( °F °C ) Humidity (%) Winds ( mph kmh ) Pressure ( in mb ) Visibility ( mi km ) Precip ( " mm )
12:54 am 00:54 Clear 36 2.2 35 1.7 97 97 S 5 7 29.97 1015 7 11.26538 0 0
1:54 am 01:54 Clear with Mist and Fog 37 2.8 36 2.2 96 96 SSE 3 6 29.96 1015 5 8.0467 0 0
2:16 am 02:16 Clear with Mist and Fog 35 1.7 35 1.7 100 100 S 5 7 30 1016 1.75 2.816345 0 0
2:24 am 02:24 Clear with Fog 34 1.1 34 1.1 100 100 SSE 6 9 30 1016 0.5 0.80467 0 0
2:35 am 02:35 Clear with Mist and Fog 34 1.1 33 0.6 97 97 SSE 6 9 30 1016 2 3.21868 0 0
2:44 am 02:44 Clear with Mist and Fog 34 1.1 33 0.6 97 97 SSE 6 9 30 1016 6 9.65604 0 0
2:54 am 02:54 Clear 35 1.7 34 1.1 96 96 SE 6 9 29.96 1014 7 11.26538 0 0
3:54 am 03:54 Clear 36 2.2 35 1.7 97 97 S 5 7 29.95 1014 8 12.87472 0 0
4:54 am 04:54 Clear 34 1.1 32 0 92 92 SSE 7 11 29.93 1014 9 14.48406 0 0
5:54 am 05:54 Clear 36 2.2 35 1.7 97 97 S 3 6 29.94 1014 10 16.0934 0 0
6:54 am 06:54 Clear 35 1.7 34 1.1 96 96 SSE 6 9 29.93 1013 10 16.0934 0 0
7:54 am 07:54 Sunny 36 2.2 35 1.7 97 97 SSE 6 9 29.92 1013 10 16.0934 0 0
8:54 am 08:54 Sunny 40 4.4 38 3.3 93 93 SSE 8 13 29.91 1013 10 16.0934 0 0
9:54 am 09:54 Sunny 46 7.8 42 5.6 86 86 SSE 10 17 29.91 1013 10 16.0934 0 0
10:54 am 10:54 Sunny 53 11.7 43 6.1 69 69 S 16 26 29.9 1013 10 16.0934 0 0
11:54 am 11:54 Sunny 57 13.9 44 6.7 62 62 SSW 15 24 29.88 1012 10 16.0934 0 0
12:54 pm 12:54 Sunny 60 15.6 44 6.7 56 56 S 18 30 29.87 1011 10 16.0934 0 0
1:54 pm 13:54 Sunny 63 17.2 45 7.2 52 52 SSW 17 28 29.83 1010 10 16.0934 0 0
2:54 pm 14:54 Sunny 64 17.8 45 7.2 50 50 SSW 16 26 29.81 1010 10 16.0934 0 0
3:54 pm 15:54 Sunny 65 18.3 46 7.8 51 51 S 13 20 29.8 1009 10 16.0934 0 0
4:54 pm 16:54 Sunny 63 17.2 45 7.2 52 52 S 12 19 29.8 1009 10 16.0934 0 0
5:54 pm 17:54 Sunny 61 16.1 47 8.3 60 60 SSE 8 13 29.8 1009 10 16.0934 0 0
6:54 pm 18:54 Mostly Cloudy 56 13.3 44 6.7 65 65 SSE 9 15 29.82 1010 10 16.0934 0 0
7:54 pm 19:54 Mostly Cloudy 53 11.7 44 6.7 72 72 SSE 7 11 29.85 1011 10 16.0934 0 0
8:54 pm 20:54 Mostly Clear 50 10 44 6.7 80 80 SSE 8 13 29.87 1012 10 16.0934 0 0
9:54 pm 21:54 Mostly Clear 50 10 44 6.7 80 80 SSE 7 11 29.88 1012 10 16.0934 0 0
10:54 pm 22:54 Cloudy 52 11.1 45 7.2 77 77 NW 8 13 29.9 1013 10 16.0934 0 0.0254
11:54 pm 23:54 Cloudy 50 10 46 7.8 86 86 NNE 3 6 29.91 1013 10 16.0934 0 0

Powered by AerisWeather